sensor_id;sensor_type;location;lat;lon;timestamp;P1;durP1;ratioP1;P2;durP2;ratioP2
57323;SDS011;43160;51.008;18.248;2023-03-23T00:08:20;17.30;;;6.10;;
57323;SDS011;43160;51.008;18.248;2023-03-23T00:18:14;20.00;;;7.40;;
57323;SDS011;43160;51.008;18.248;2023-03-23T00:28:11;15.30;;;5.70;;
57323;SDS011;43160;51.008;18.248;2023-03-23T00:37:56;9.50;;;4.50;;
57323;SDS011;43160;51.008;18.248;2023-03-23T00:47:42;17.00;;;6.20;;
57323;SDS011;43160;51.008;18.248;2023-03-23T00:57:31;14.10;;;6.10;;
57323;SDS011;43160;51.008;18.248;2023-03-23T01:07:20;15.40;;;7.10;;
57323;SDS011;43160;51.008;18.248;2023-03-23T01:17:06;15.10;;;6.50;;
57323;SDS011;43160;51.008;18.248;2023-03-23T01:26:49;19.50;;;7.40;;
57323;SDS011;43160;51.008;18.248;2023-03-23T01:36:34;13.90;;;5.60;;
57323;SDS011;43160;51.008;18.248;2023-03-23T01:46:24;17.50;;;5.50;;
57323;SDS011;43160;51.008;18.248;2023-03-23T01:56:13;10.90;;;3.40;;
57323;SDS011;43160;51.008;18.248;2023-03-23T02:05:58;13.30;;;5.60;;
57323;SDS011;43160;51.008;18.248;2023-03-23T02:15:48;11.10;;;4.30;;
57323;SDS011;43160;51.008;18.248;2023-03-23T02:26:38;13.20;;;5.40;;
57323;SDS011;43160;51.008;18.248;2023-03-23T02:37:03;16.60;;;5.50;;
57323;SDS011;43160;51.008;18.248;2023-03-23T02:47:06;16.20;;;6.60;;
57323;SDS011;43160;51.008;18.248;2023-03-23T02:56:54;15.80;;;7.00;;
57323;SDS011;43160;51.008;18.248;2023-03-23T03:17:23;17.90;;;6.40;;
57323;SDS011;43160;51.008;18.248;2023-03-23T03:27:10;16.60;;;6.70;;
57323;SDS011;43160;51.008;18.248;2023-03-23T03:37:02;11.70;;;3.80;;
57323;SDS011;43160;51.008;18.248;2023-03-23T03:46:48;12.30;;;5.60;;
57323;SDS011;43160;51.008;18.248;2023-03-23T03:56:32;19.60;;;6.20;;
57323;SDS011;43160;51.008;18.248;2023-03-23T04:06:20;15.60;;;6.70;;
57323;SDS011;43160;51.008;18.248;2023-03-23T04:16:05;13.90;;;5.90;;
57323;SDS011;43160;51.008;18.248;2023-03-23T04:25:53;15.50;;;6.60;;
57323;SDS011;43160;51.008;18.248;2023-03-23T04:35:44;20.40;;;7.20;;
57323;SDS011;43160;51.008;18.248;2023-03-23T04:45:33;18.10;;;8.40;;
57323;SDS011;43160;51.008;18.248;2023-03-23T04:55:24;18.10;;;7.90;;
57323;SDS011;43160;51.008;18.248;2023-03-23T05:05:11;14.80;;;7.70;;
57323;SDS011;43160;51.008;18.248;2023-03-23T05:14:57;13.80;;;7.10;;
57323;SDS011;43160;51.008;18.248;2023-03-23T05:24:46;18.80;;;7.70;;
57323;SDS011;43160;51.008;18.248;2023-03-23T05:34:33;17.50;;;8.50;;
57323;SDS011;43160;51.008;18.248;2023-03-23T05:44:18;13.90;;;5.80;;
57323;SDS011;43160;51.008;18.248;2023-03-23T05:54:02;19.30;;;7.80;;
57323;SDS011;43160;51.008;18.248;2023-03-23T06:03:50;17.20;;;7.90;;
57323;SDS011;43160;51.008;18.248;2023-03-23T06:13:38;17.90;;;8.90;;
57323;SDS011;43160;51.008;18.248;2023-03-23T06:23:25;18.80;;;9.00;;
57323;SDS011;43160;51.008;18.248;2023-03-23T06:33:18;23.00;;;7.10;;
57323;SDS011;43160;51.008;18.248;2023-03-23T06:43:02;22.80;;;10.90;;
57323;SDS011;43160;51.008;18.248;2023-03-23T06:52:46;15.80;;;7.40;;
57323;SDS011;43160;51.008;18.248;2023-03-23T07:02:34;15.60;;;6.30;;
57323;SDS011;43160;51.008;18.248;2023-03-23T07:12:20;14.10;;;5.20;;
57323;SDS011;43160;51.008;18.248;2023-03-23T07:22:06;23.40;;;11.60;;
57323;SDS011;43160;51.008;18.248;2023-03-23T07:31:52;12.70;;;5.00;;
57323;SDS011;43160;51.008;18.248;2023-03-23T07:41:38;14.70;;;6.20;;
57323;SDS011;43160;51.008;18.248;2023-03-23T07:51:23;11.40;;;5.00;;
57323;SDS011;43160;51.008;18.248;2023-03-23T08:01:11;17.80;;;7.20;;
57323;SDS011;43160;51.008;18.248;2023-03-23T08:10:55;12.50;;;5.80;;
57323;SDS011;43160;51.008;18.248;2023-03-23T08:20:39;12.20;;;4.90;;
57323;SDS011;43160;51.008;18.248;2023-03-23T08:30:23;6.80;;;2.30;;
57323;SDS011;43160;51.008;18.248;2023-03-23T08:40:10;9.20;;;3.50;;
57323;SDS011;43160;51.008;18.248;2023-03-23T08:49:58;12.40;;;4.60;;
57323;SDS011;43160;51.008;18.248;2023-03-23T08:59:43;12.00;;;5.40;;
57323;SDS011;43160;51.008;18.248;2023-03-23T09:09:29;8.70;;;3.70;;
57323;SDS011;43160;51.008;18.248;2023-03-23T09:19:12;12.80;;;4.10;;
57323;SDS011;43160;51.008;18.248;2023-03-23T09:28:56;10.80;;;3.90;;
57323;SDS011;43160;51.008;18.248;2023-03-23T09:38:47;20.30;;;3.70;;
57323;SDS011;43160;51.008;18.248;2023-03-23T10:00:07;6.00;;;2.40;;
57323;SDS011;43160;51.008;18.248;2023-03-23T10:10:24;10.20;;;4.10;;
57323;SDS011;43160;51.008;18.248;2023-03-23T10:20:54;10.90;;;3.10;;
57323;SDS011;43160;51.008;18.248;2023-03-23T10:26:13;11.20;;;3.40;;
57323;SDS011;43160;51.008;18.248;2023-03-23T10:36:40;5.30;;;1.70;;
57323;SDS011;43160;51.008;18.248;2023-03-23T10:46:53;8.60;;;2.90;;
57323;SDS011;43160;51.008;18.248;2023-03-23T11:07:18;10.20;;;2.50;;
57323;SDS011;43160;51.008;18.248;2023-03-23T11:17:22;0.90;;;0.90;;
57323;SDS011;43160;51.008;18.248;2023-03-23T11:27:11;7.20;;;2.30;;
57323;SDS011;43160;51.008;18.248;2023-03-23T11:37:08;8.70;;;2.60;;
57323;SDS011;43160;51.008;18.248;2023-03-23T11:47:16;8.00;;;2.30;;
57323;SDS011;43160;51.008;18.248;2023-03-23T11:57:45;5.70;;;1.80;;
57323;SDS011;43160;51.008;18.248;2023-03-23T12:08:14;7.90;;;2.20;;
57323;SDS011;43160;51.008;18.248;2023-03-23T12:18:24;10.30;;;2.40;;
57323;SDS011;43160;51.008;18.248;2023-03-23T13:11:40;8.10;;;2.20;;
57323;SDS011;43160;51.008;18.248;2023-03-23T13:21:41;6.40;;;1.80;;
57323;SDS011;43160;51.008;18.248;2023-03-23T13:31:38;3.20;;;1.50;;
57323;SDS011;43160;51.008;18.248;2023-03-23T13:41:33;11.10;;;3.10;;
57323;SDS011;43160;51.008;18.248;2023-03-23T13:51:52;8.80;;;3.20;;
57323;SDS011;43160;51.008;18.248;2023-03-23T14:10:49;9.40;;;2.80;;
57323;SDS011;43160;51.008;18.248;2023-03-23T14:18:30;10.70;;;3.50;;
57323;SDS011;43160;51.008;18.248;2023-03-23T14:28:21;7.10;;;2.50;;
57323;SDS011;43160;51.008;18.248;2023-03-23T14:38:21;6.50;;;2.70;;
57323;SDS011;43160;51.008;18.248;2023-03-23T14:48:16;11.10;;;4.20;;
57323;SDS011;43160;51.008;18.248;2023-03-23T14:58:13;12.30;;;3.70;;
57323;SDS011;43160;51.008;18.248;2023-03-23T15:08:12;14.80;;;6.40;;
57323;SDS011;43160;51.008;18.248;2023-03-23T15:25:55;12.30;;;4.80;;
57323;SDS011;43160;51.008;18.248;2023-03-23T15:35:58;13.90;;;5.60;;
57323;SDS011;43160;51.008;18.248;2023-03-23T15:45:57;41.70;;;15.00;;
57323;SDS011;43160;51.008;18.248;2023-03-23T15:56:13;14.40;;;4.60;;
57323;SDS011;43160;51.008;18.248;2023-03-23T16:06:05;15.40;;;4.80;;
57323;SDS011;43160;51.008;18.248;2023-03-23T16:23:15;16.30;;;7.40;;
57323;SDS011;43160;51.008;18.248;2023-03-23T16:33:05;20.00;;;8.20;;
57323;SDS011;43160;51.008;18.248;2023-03-23T16:42:49;27.70;;;8.80;;
57323;SDS011;43160;51.008;18.248;2023-03-23T16:52:41;19.90;;;7.80;;
57323;SDS011;43160;51.008;18.248;2023-03-23T17:02:33;20.80;;;9.60;;
57323;SDS011;43160;51.008;18.248;2023-03-23T17:12:17;13.30;;;5.10;;
57323;SDS011;43160;51.008;18.248;2023-03-23T17:22:00;11.30;;;4.20;;
57323;SDS011;43160;51.008;18.248;2023-03-23T17:31:47;13.40;;;5.00;;
57323;SDS011;43160;51.008;18.248;2023-03-23T17:41:33;11.90;;;4.00;;
57323;SDS011;43160;51.008;18.248;2023-03-23T17:51:17;11.60;;;4.20;;
57323;SDS011;43160;51.008;18.248;2023-03-23T18:01:01;12.00;;;4.40;;
57323;SDS011;43160;51.008;18.248;2023-03-23T18:10:50;10.00;;;4.90;;
57323;SDS011;43160;51.008;18.248;2023-03-23T18:20:34;13.70;;;4.80;;
57323;SDS011;43160;51.008;18.248;2023-03-23T18:30:19;15.10;;;4.90;;
57323;SDS011;43160;51.008;18.248;2023-03-23T18:40:06;9.60;;;3.70;;
57323;SDS011;43160;51.008;18.248;2023-03-23T18:49:53;11.40;;;3.70;;
57323;SDS011;43160;51.008;18.248;2023-03-23T18:59:38;11.40;;;4.30;;
57323;SDS011;43160;51.008;18.248;2023-03-23T19:09:23;7.20;;;2.20;;
57323;SDS011;43160;51.008;18.248;2023-03-23T19:19:07;17.50;;;6.20;;
57323;SDS011;43160;51.008;18.248;2023-03-23T19:28:58;7.70;;;3.10;;
57323;SDS011;43160;51.008;18.248;2023-03-23T19:38:43;7.30;;;2.30;;
57323;SDS011;43160;51.008;18.248;2023-03-23T19:48:27;10.30;;;2.60;;
57323;SDS011;43160;51.008;18.248;2023-03-23T19:58:14;5.70;;;2.20;;
57323;SDS011;43160;51.008;18.248;2023-03-23T20:07:58;9.80;;;3.10;;
57323;SDS011;43160;51.008;18.248;2023-03-23T20:17:42;10.20;;;2.70;;
57323;SDS011;43160;51.008;18.248;2023-03-23T20:27:25;6.80;;;2.60;;
57323;SDS011;43160;51.008;18.248;2023-03-23T20:37:14;9.70;;;3.60;;
57323;SDS011;43160;51.008;18.248;2023-03-23T20:47:04;7.60;;;2.90;;
57323;SDS011;43160;51.008;18.248;2023-03-23T20:56:51;11.10;;;3.60;;
57323;SDS011;43160;51.008;18.248;2023-03-23T21:06:40;9.10;;;3.10;;
57323;SDS011;43160;51.008;18.248;2023-03-23T21:16:26;15.90;;;3.90;;
57323;SDS011;43160;51.008;18.248;2023-03-23T21:26:16;10.00;;;4.10;;
57323;SDS011;43160;51.008;18.248;2023-03-23T21:36:01;10.30;;;2.60;;
57323;SDS011;43160;51.008;18.248;2023-03-23T21:45:52;9.80;;;3.00;;
57323;SDS011;43160;51.008;18.248;2023-03-23T22:03:15;4.50;;;1.80;;
57323;SDS011;43160;51.008;18.248;2023-03-23T22:13:08;13.50;;;4.10;;
57323;SDS011;43160;51.008;18.248;2023-03-23T22:22:53;13.40;;;3.90;;
57323;SDS011;43160;51.008;18.248;2023-03-23T22:32:37;10.80;;;3.30;;
57323;SDS011;43160;51.008;18.248;2023-03-23T22:42:23;6.50;;;2.80;;
57323;SDS011;43160;51.008;18.248;2023-03-23T22:52:07;11.40;;;3.70;;
57323;SDS011;43160;51.008;18.248;2023-03-23T23:01:51;11.70;;;4.00;;
57323;SDS011;43160;51.008;18.248;2023-03-23T23:11:35;11.40;;;4.40;;
57323;SDS011;43160;51.008;18.248;2023-03-23T23:21:20;8.80;;;3.10;;
57323;SDS011;43160;51.008;18.248;2023-03-23T23:41:23;13.40;;;4.40;;
57323;SDS011;43160;51.008;18.248;2023-03-23T23:51:09;10.40;;;3.90;;
